This is the latest recevied weather packets stored in our database for station/object N4HAC. If no packets are shown the sender has not sent any weather packets the latest 10 day(s).
| Time | Temp. | Humidity | Pressure | Rain* | Wind** | Luminosity | Snow |
|---|---|---|---|---|---|---|---|
| 1777402863 | 15° C | 81% | 1012.1 hPa | 0 mm | - | 221 W/m² | - |
| 1777402560 | 15° C | 82% | 1012.1 hPa | 0 mm | - | 208 W/m² | - |
| 1777402258 | 15° C | 81% | 1012.1 hPa | 0 mm | - | 269 W/m² | - |
| 1777401952 | 15° C | 81% | 1012 hPa | 0 mm | - | 345 W/m² | - |
| 1777401651 | 15° C | 81% | 1012.2 hPa | 0 mm | - | 267 W/m² | - |
| 1777401349 | 15° C | 81% | 1012.2 hPa | 0 mm | - | 262 W/m² | - |
| 1777401044 | 15° C | 80% | 1012.1 hPa | 0 mm | - | 296 W/m² | - |
| 1777400740 | 15° C | 79% | 1012 hPa | 0 mm | - | 223 W/m² | - |
| 1777400438 | 15° C | 80% | 1012 hPa | 0 mm | - | 160 W/m² | - |
| 1777400138 | 15° C | 80% | 1012 hPa | 0 mm | - | 158 W/m² | - |
| 1777399835 | 15° C | 79% | 1011.9 hPa | 0 mm | - | 187 W/m² | - |
| 1777399532 | 15.56° C | 79% | 1012 hPa | 0 mm | - | 200 W/m² | - |
| 1777399229 | 15.56° C | 78% | 1012 hPa | 0 mm | - | 277 W/m² | - |
| 1777398927 | 16.11° C | 77% | 1011.9 hPa | 0 mm | - | 254 W/m² | - |
| 1777398624 | 15.56° C | 78% | 1012.1 hPa | 0 mm | - | 407 W/m² | - |
| 1777398320 | 15.56° C | 79% | 1012.1 hPa | 0 mm | - | 274 W/m² | - |
| 1777398017 | 15.56° C | 78% | 1012.2 hPa | 0 mm | - | 316 W/m² | - |
| 1777397714 | 15.56° C | 80% | 1012.4 hPa | 0 mm | - | 424 W/m² | - |
| 1777397410 | 15.56° C | 80% | 1012.4 hPa | 0 mm | - | 361 W/m² | - |
| 1777397106 | 15° C | 78% | 1012.1 hPa | 0 mm | - | 317 W/m² | - |
| 1777396803 | 15.56° C | 80% | 1012.5 hPa | 0 mm | - | 465 W/m² | - |
| 1777396499 | 15.56° C | 79% | 1012.5 hPa | 0 mm | - | 376 W/m² | - |
| 1777396196 | 15° C | 80% | 1012.4 hPa | 0 mm | - | 234 W/m² | - |
| 1777395892 | 14.44° C | 79% | 1012.5 hPa | 0 mm | - | 257 W/m² | - |
| 1777395588 | 15° C | 78% | 1012.6 hPa | 0 mm | - | 306 W/m² | - |
* Rain latest hour (hover to see other rain measurements)
** Current wind speed in m/s (hover to see current wind gust speed)